sensor_id;sensor_type;location;lat;lon;timestamp;P1;durP1;ratioP1;P2;durP2;ratioP2
1995;SDS011;38556;47.068;15.408;2022-12-18T00:02:27;36.45;;;33.08;;
1995;SDS011;38556;47.068;15.408;2022-12-18T00:04:54;33.30;;;30.45;;
1995;SDS011;38556;47.068;15.408;2022-12-18T00:07:21;36.22;;;32.85;;
1995;SDS011;38556;47.068;15.408;2022-12-18T00:09:48;37.97;;;34.33;;
1995;SDS011;38556;47.068;15.408;2022-12-18T00:12:16;38.10;;;34.38;;
1995;SDS011;38556;47.068;15.408;2022-12-18T00:14:43;39.17;;;35.15;;
1995;SDS011;38556;47.068;15.408;2022-12-18T00:17:11;58.60;;;39.47;;
1995;SDS011;38556;47.068;15.408;2022-12-18T00:19:39;41.60;;;36.17;;
1995;SDS011;38556;47.068;15.408;2022-12-18T00:22:07;58.33;;;38.85;;
1995;SDS011;38556;47.068;15.408;2022-12-18T00:24:34;39.83;;;35.70;;
1995;SDS011;38556;47.068;15.408;2022-12-18T00:27:01;40.90;;;36.40;;
1995;SDS011;38556;47.068;15.408;2022-12-18T00:29:29;41.45;;;36.15;;
1995;SDS011;38556;47.068;15.408;2022-12-18T00:31:56;44.28;;;39.08;;
1995;SDS011;38556;47.068;15.408;2022-12-18T00:34:23;39.67;;;35.63;;
1995;SDS011;38556;47.068;15.408;2022-12-18T00:36:52;41.25;;;35.38;;
1995;SDS011;38556;47.068;15.408;2022-12-18T00:39:19;41.35;;;36.15;;
1995;SDS011;38556;47.068;15.408;2022-12-18T00:41:47;41.50;;;37.05;;
1995;SDS011;38556;47.068;15.408;2022-12-18T00:44:31;37.00;;;33.30;;
1995;SDS011;38556;47.068;15.408;2022-12-18T00:46:59;42.90;;;36.80;;
1995;SDS011;38556;47.068;15.408;2022-12-18T00:49:26;48.15;;;39.65;;
1995;SDS011;38556;47.068;15.408;2022-12-18T00:51:55;38.72;;;34.72;;
1995;SDS011;38556;47.068;15.408;2022-12-18T00:54:22;40.28;;;36.03;;
1995;SDS011;38556;47.068;15.408;2022-12-18T00:56:49;40.33;;;35.97;;
1995;SDS011;38556;47.068;15.408;2022-12-18T00:59:17;50.75;;;40.22;;
1995;SDS011;38556;47.068;15.408;2022-12-18T01:01:44;42.03;;;36.63;;
1995;SDS011;38556;47.068;15.408;2022-12-18T01:04:13;41.95;;;36.80;;
1995;SDS011;38556;47.068;15.408;2022-12-18T01:06:41;38.95;;;34.03;;
1995;SDS011;38556;47.068;15.408;2022-12-18T01:09:11;48.08;;;36.90;;
1995;SDS011;38556;47.068;15.408;2022-12-18T01:11:38;40.58;;;36.00;;
1995;SDS011;38556;47.068;15.408;2022-12-18T01:14:05;39.78;;;35.58;;
1995;SDS011;38556;47.068;15.408;2022-12-18T01:16:33;42.03;;;37.67;;
1995;SDS011;38556;47.068;15.408;2022-12-18T01:19:00;41.03;;;36.70;;
1995;SDS011;38556;47.068;15.408;2022-12-18T01:21:28;40.42;;;36.05;;
1995;SDS011;38556;47.068;15.408;2022-12-18T01:23:55;38.90;;;34.70;;
1995;SDS011;38556;47.068;15.408;2022-12-18T01:26:25;36.30;;;32.67;;
1995;SDS011;38556;47.068;15.408;2022-12-18T01:28:55;35.85;;;32.10;;
1995;SDS011;38556;47.068;15.408;2022-12-18T01:31:23;33.80;;;30.55;;
1995;SDS011;38556;47.068;15.408;2022-12-18T01:33:52;37.65;;;33.33;;
1995;SDS011;38556;47.068;15.408;2022-12-18T01:36:21;44.58;;;36.20;;
1995;SDS011;38556;47.068;15.408;2022-12-18T01:38:50;42.50;;;36.67;;
1995;SDS011;38556;47.068;15.408;2022-12-18T01:41:20;40.25;;;35.92;;
1995;SDS011;38556;47.068;15.408;2022-12-18T01:43:52;36.90;;;33.22;;
1995;SDS011;38556;47.068;15.408;2022-12-18T01:46:21;37.42;;;33.63;;
1995;SDS011;38556;47.068;15.408;2022-12-18T01:48:51;40.17;;;36.22;;
1995;SDS011;38556;47.068;15.408;2022-12-18T01:51:21;38.00;;;33.90;;
1995;SDS011;38556;47.068;15.408;2022-12-18T01:53:48;38.95;;;35.22;;
1995;SDS011;38556;47.068;15.408;2022-12-18T01:56:17;37.47;;;33.55;;
1995;SDS011;38556;47.068;15.408;2022-12-18T01:58:48;35.85;;;32.45;;
1995;SDS011;38556;47.068;15.408;2022-12-18T02:01:21;35.60;;;32.38;;
1995;SDS011;38556;47.068;15.408;2022-12-18T02:03:50;36.13;;;32.95;;
1995;SDS011;38556;47.068;15.408;2022-12-18T02:06:19;36.80;;;33.35;;
1995;SDS011;38556;47.068;15.408;2022-12-18T02:08:56;37.58;;;33.80;;
1995;SDS011;38556;47.068;15.408;2022-12-18T02:11:32;37.08;;;33.53;;
1995;SDS011;38556;47.068;15.408;2022-12-18T02:14:11;38.72;;;34.72;;
1995;SDS011;38556;47.068;15.408;2022-12-18T02:16:52;43.35;;;38.65;;
1995;SDS011;38556;47.068;15.408;2022-12-18T02:19:36;39.72;;;35.15;;
1995;SDS011;38556;47.068;15.408;2022-12-18T02:22:21;38.65;;;34.40;;
1995;SDS011;38556;47.068;15.408;2022-12-18T02:25:00;39.80;;;36.08;;
1995;SDS011;38556;47.068;15.408;2022-12-18T02:27:33;37.70;;;34.13;;
1995;SDS011;38556;47.068;15.408;2022-12-18T02:30:04;37.75;;;33.88;;
1995;SDS011;38556;47.068;15.408;2022-12-18T02:32:34;37.58;;;33.83;;
1995;SDS011;38556;47.068;15.408;2022-12-18T02:35:05;38.15;;;34.25;;
1995;SDS011;38556;47.068;15.408;2022-12-18T02:37:35;36.85;;;33.03;;
1995;SDS011;38556;47.068;15.408;2022-12-18T02:40:05;36.40;;;32.90;;
1995;SDS011;38556;47.068;15.408;2022-12-18T02:42:36;38.78;;;35.08;;
1995;SDS011;38556;47.068;15.408;2022-12-18T02:45:04;39.35;;;35.30;;
1995;SDS011;38556;47.068;15.408;2022-12-18T02:47:32;39.28;;;35.03;;
1995;SDS011;38556;47.068;15.408;2022-12-18T02:50:06;37.70;;;34.05;;
1995;SDS011;38556;47.068;15.408;2022-12-18T02:52:35;39.72;;;35.25;;
1995;SDS011;38556;47.068;15.408;2022-12-18T02:55:13;42.20;;;36.35;;
1995;SDS011;38556;47.068;15.408;2022-12-18T02:57:50;37.13;;;33.38;;
1995;SDS011;38556;47.068;15.408;2022-12-18T03:00:21;38.85;;;34.67;;
1995;SDS011;38556;47.068;15.408;2022-12-18T03:02:54;40.40;;;36.22;;
1995;SDS011;38556;47.068;15.408;2022-12-18T03:05:28;38.30;;;34.20;;
1995;SDS011;38556;47.068;15.408;2022-12-18T03:08:01;38.38;;;34.45;;
1995;SDS011;38556;47.068;15.408;2022-12-18T03:10:33;37.72;;;34.03;;
1995;SDS011;38556;47.068;15.408;2022-12-18T03:13:08;36.78;;;33.08;;
1995;SDS011;38556;47.068;15.408;2022-12-18T03:15:41;37.42;;;33.72;;
1995;SDS011;38556;47.068;15.408;2022-12-18T03:18:12;39.05;;;35.15;;
1995;SDS011;38556;47.068;15.408;2022-12-18T03:20:44;35.17;;;31.77;;
1995;SDS011;38556;47.068;15.408;2022-12-18T03:23:14;35.38;;;31.95;;
1995;SDS011;38556;47.068;15.408;2022-12-18T03:25:43;38.30;;;34.30;;
1995;SDS011;38556;47.068;15.408;2022-12-18T03:28:14;38.17;;;34.38;;
1995;SDS011;38556;47.068;15.408;2022-12-18T03:30:43;37.53;;;33.70;;
1995;SDS011;38556;47.068;15.408;2022-12-18T03:33:14;38.28;;;34.40;;
1995;SDS011;38556;47.068;15.408;2022-12-18T03:35:44;37.65;;;34.10;;
1995;SDS011;38556;47.068;15.408;2022-12-18T03:38:13;33.55;;;30.45;;
1995;SDS011;38556;47.068;15.408;2022-12-18T03:40:43;33.20;;;30.20;;
1995;SDS011;38556;47.068;15.408;2022-12-18T03:43:20;38.35;;;34.38;;
1995;SDS011;38556;47.068;15.408;2022-12-18T03:45:59;34.20;;;30.75;;
1995;SDS011;38556;47.068;15.408;2022-12-18T03:48:31;34.05;;;30.60;;
1995;SDS011;38556;47.068;15.408;2022-12-18T03:51:05;30.15;;;27.48;;
1995;SDS011;38556;47.068;15.408;2022-12-18T03:53:36;30.27;;;27.67;;
1995;SDS011;38556;47.068;15.408;2022-12-18T03:56:10;29.30;;;26.85;;
1995;SDS011;38556;47.068;15.408;2022-12-18T03:58:41;27.77;;;25.40;;
1995;SDS011;38556;47.068;15.408;2022-12-18T04:01:10;28.88;;;26.67;;
1995;SDS011;38556;47.068;15.408;2022-12-18T04:03:40;25.65;;;23.77;;
1995;SDS011;38556;47.068;15.408;2022-12-18T04:06:08;23.85;;;22.15;;
1995;SDS011;38556;47.068;15.408;2022-12-18T04:08:37;24.23;;;22.50;;
1995;SDS011;38556;47.068;15.408;2022-12-18T04:11:05;25.30;;;23.30;;
1995;SDS011;38556;47.068;15.408;2022-12-18T04:13:34;23.75;;;22.15;;
1995;SDS011;38556;47.068;15.408;2022-12-18T04:16:04;25.73;;;23.77;;
1995;SDS011;38556;47.068;15.408;2022-12-18T04:18:32;23.75;;;22.15;;
1995;SDS011;38556;47.068;15.408;2022-12-18T04:21:00;25.08;;;23.27;;
1995;SDS011;38556;47.068;15.408;2022-12-18T04:23:28;26.13;;;24.23;;
1995;SDS011;38556;47.068;15.408;2022-12-18T04:25:55;24.73;;;22.92;;
1995;SDS011;38556;47.068;15.408;2022-12-18T04:28:23;25.50;;;23.63;;
1995;SDS011;38556;47.068;15.408;2022-12-18T04:30:50;25.55;;;23.50;;
1995;SDS011;38556;47.068;15.408;2022-12-18T04:33:19;24.50;;;22.90;;
1995;SDS011;38556;47.068;15.408;2022-12-18T04:35:46;25.70;;;23.88;;
1995;SDS011;38556;47.068;15.408;2022-12-18T04:38:14;25.95;;;23.73;;
1995;SDS011;38556;47.068;15.408;2022-12-18T04:40:41;25.00;;;23.13;;
1995;SDS011;38556;47.068;15.408;2022-12-18T04:43:08;25.40;;;23.55;;
1995;SDS011;38556;47.068;15.408;2022-12-18T04:45:36;24.38;;;22.85;;
1995;SDS011;38556;47.068;15.408;2022-12-18T04:48:03;24.65;;;22.90;;
1995;SDS011;38556;47.068;15.408;2022-12-18T04:50:32;23.15;;;21.65;;
1995;SDS011;38556;47.068;15.408;2022-12-18T04:53:00;25.58;;;23.58;;
1995;SDS011;38556;47.068;15.408;2022-12-18T04:55:27;27.10;;;25.02;;
1995;SDS011;38556;47.068;15.408;2022-12-18T04:57:55;26.70;;;24.75;;
1995;SDS011;38556;47.068;15.408;2022-12-18T05:00:22;29.38;;;26.98;;
1995;SDS011;38556;47.068;15.408;2022-12-18T05:02:50;27.80;;;25.35;;
1995;SDS011;38556;47.068;15.408;2022-12-18T05:05:17;27.83;;;25.63;;
1995;SDS011;38556;47.068;15.408;2022-12-18T05:07:46;29.08;;;26.75;;
1995;SDS011;38556;47.068;15.408;2022-12-18T05:10:13;29.70;;;27.40;;
1995;SDS011;38556;47.068;15.408;2022-12-18T05:12:41;30.05;;;27.55;;
1995;SDS011;38556;47.068;15.408;2022-12-18T05:15:21;31.45;;;28.85;;
1995;SDS011;38556;47.068;15.408;2022-12-18T05:17:49;32.30;;;29.63;;
1995;SDS011;38556;47.068;15.408;2022-12-18T05:20:16;31.90;;;29.10;;
1995;SDS011;38556;47.068;15.408;2022-12-18T05:22:46;29.77;;;27.27;;
1995;SDS011;38556;47.068;15.408;2022-12-18T05:25:13;29.95;;;27.65;;
1995;SDS011;38556;47.068;15.408;2022-12-18T05:27:40;29.55;;;27.23;;
1995;SDS011;38556;47.068;15.408;2022-12-18T05:30:08;28.60;;;26.38;;
1995;SDS011;38556;47.068;15.408;2022-12-18T05:32:36;31.70;;;28.88;;
1995;SDS011;38556;47.068;15.408;2022-12-18T05:35:04;28.50;;;26.02;;
1995;SDS011;38556;47.068;15.408;2022-12-18T05:37:33;28.70;;;26.50;;
1995;SDS011;38556;47.068;15.408;2022-12-18T05:40:03;29.58;;;27.20;;
1995;SDS011;38556;47.068;15.408;2022-12-18T05:42:30;27.75;;;25.83;;
1995;SDS011;38556;47.068;15.408;2022-12-18T05:44:58;29.95;;;27.40;;
1995;SDS011;38556;47.068;15.408;2022-12-18T05:47:26;28.63;;;26.48;;
1995;SDS011;38556;47.068;15.408;2022-12-18T05:49:54;30.88;;;28.45;;
1995;SDS011;38556;47.068;15.408;2022-12-18T05:52:21;31.00;;;28.70;;
1995;SDS011;38556;47.068;15.408;2022-12-18T05:54:48;30.00;;;27.40;;
1995;SDS011;38556;47.068;15.408;2022-12-18T05:57:17;34.83;;;31.80;;
1995;SDS011;38556;47.068;15.408;2022-12-18T05:59:45;33.15;;;30.33;;
1995;SDS011;38556;47.068;15.408;2022-12-18T06:02:12;31.90;;;29.13;;
1995;SDS011;38556;47.068;15.408;2022-12-18T06:04:39;31.95;;;29.13;;
1995;SDS011;38556;47.068;15.408;2022-12-18T06:07:07;29.77;;;27.38;;
1995;SDS011;38556;47.068;15.408;2022-12-18T06:09:34;29.55;;;27.15;;
1995;SDS011;38556;47.068;15.408;2022-12-18T06:12:02;30.20;;;27.60;;
1995;SDS011;38556;47.068;15.408;2022-12-18T06:14:30;29.13;;;26.67;;
1995;SDS011;38556;47.068;15.408;2022-12-18T06:16:57;28.75;;;26.63;;
1995;SDS011;38556;47.068;15.408;2022-12-18T06:19:25;25.92;;;23.95;;
1995;SDS011;38556;47.068;15.408;2022-12-18T06:21:52;27.38;;;25.27;;
1995;SDS011;38556;47.068;15.408;2022-12-18T06:24:20;26.92;;;24.88;;
1995;SDS011;38556;47.068;15.408;2022-12-18T06:26:47;27.13;;;25.10;;
1995;SDS011;38556;47.068;15.408;2022-12-18T06:29:15;25.98;;;23.92;;
1995;SDS011;38556;47.068;15.408;2022-12-18T06:31:43;25.80;;;23.80;;
1995;SDS011;38556;47.068;15.408;2022-12-18T06:34:11;24.40;;;22.65;;
1995;SDS011;38556;47.068;15.408;2022-12-18T06:36:38;26.15;;;24.05;;
1995;SDS011;38556;47.068;15.408;2022-12-18T06:39:05;24.67;;;22.98;;
1995;SDS011;38556;47.068;15.408;2022-12-18T06:41:33;25.35;;;23.60;;
1995;SDS011;38556;47.068;15.408;2022-12-18T06:44:00;25.90;;;24.00;;
1995;SDS011;38556;47.068;15.408;2022-12-18T06:46:27;25.30;;;23.38;;
1995;SDS011;38556;47.068;15.408;2022-12-18T06:48:56;25.20;;;23.52;;
1995;SDS011;38556;47.068;15.408;2022-12-18T06:51:24;25.40;;;23.52;;
1995;SDS011;38556;47.068;15.408;2022-12-18T06:53:51;24.60;;;22.90;;
1995;SDS011;38556;47.068;15.408;2022-12-18T06:56:19;25.55;;;23.42;;
1995;SDS011;38556;47.068;15.408;2022-12-18T06:58:46;25.48;;;23.67;;
1995;SDS011;38556;47.068;15.408;2022-12-18T07:01:14;25.20;;;23.17;;
1995;SDS011;38556;47.068;15.408;2022-12-18T07:03:41;25.27;;;23.40;;
1995;SDS011;38556;47.068;15.408;2022-12-18T07:06:14;24.67;;;22.98;;
1995;SDS011;38556;47.068;15.408;2022-12-18T07:08:43;25.40;;;23.55;;
1995;SDS011;38556;47.068;15.408;2022-12-18T07:11:10;24.55;;;22.85;;
1995;SDS011;38556;47.068;15.408;2022-12-18T07:13:38;25.50;;;23.75;;
1995;SDS011;38556;47.068;15.408;2022-12-18T07:16:06;25.45;;;23.38;;
1995;SDS011;38556;47.068;15.408;2022-12-18T07:18:34;24.60;;;22.75;;
1995;SDS011;38556;47.068;15.408;2022-12-18T07:21:03;25.60;;;23.80;;
1995;SDS011;38556;47.068;15.408;2022-12-18T07:23:33;24.88;;;23.08;;
1995;SDS011;38556;47.068;15.408;2022-12-18T07:26:02;25.40;;;23.77;;
1995;SDS011;38556;47.068;15.408;2022-12-18T07:28:30;25.35;;;23.45;;
1995;SDS011;38556;47.068;15.408;2022-12-18T07:30:58;24.90;;;23.30;;
1995;SDS011;38556;47.068;15.408;2022-12-18T07:33:25;25.17;;;23.33;;
1995;SDS011;38556;47.068;15.408;2022-12-18T07:35:53;24.80;;;22.92;;
1995;SDS011;38556;47.068;15.408;2022-12-18T07:38:20;25.45;;;23.65;;
1995;SDS011;38556;47.068;15.408;2022-12-18T07:40:49;28.08;;;25.77;;
1995;SDS011;38556;47.068;15.408;2022-12-18T07:43:17;26.48;;;24.48;;
1995;SDS011;38556;47.068;15.408;2022-12-18T07:45:44;27.55;;;25.42;;
1995;SDS011;38556;47.068;15.408;2022-12-18T07:48:12;27.38;;;25.20;;
1995;SDS011;38556;47.068;15.408;2022-12-18T07:50:39;26.95;;;24.48;;
1995;SDS011;38556;47.068;15.408;2022-12-18T07:53:07;25.92;;;23.83;;
1995;SDS011;38556;47.068;15.408;2022-12-18T07:55:34;26.55;;;24.45;;
1995;SDS011;38556;47.068;15.408;2022-12-18T07:58:03;28.23;;;26.13;;
1995;SDS011;38556;47.068;15.408;2022-12-18T08:00:31;26.77;;;24.88;;
1995;SDS011;38556;47.068;15.408;2022-12-18T08:02:58;27.70;;;25.75;;
1995;SDS011;38556;47.068;15.408;2022-12-18T08:05:26;27.00;;;24.73;;
1995;SDS011;38556;47.068;15.408;2022-12-18T08:07:54;27.42;;;25.35;;
1995;SDS011;38556;47.068;15.408;2022-12-18T08:10:22;27.67;;;25.50;;
1995;SDS011;38556;47.068;15.408;2022-12-18T08:12:49;29.20;;;26.98;;
1995;SDS011;38556;47.068;15.408;2022-12-18T08:15:19;28.10;;;25.90;;
1995;SDS011;38556;47.068;15.408;2022-12-18T08:17:46;28.02;;;25.73;;
1995;SDS011;38556;47.068;15.408;2022-12-18T08:20:14;27.58;;;25.70;;
1995;SDS011;38556;47.068;15.408;2022-12-18T08:22:43;28.83;;;26.83;;
1995;SDS011;38556;47.068;15.408;2022-12-18T08:25:10;27.92;;;25.75;;
1995;SDS011;38556;47.068;15.408;2022-12-18T08:27:38;28.15;;;26.15;;
1995;SDS011;38556;47.068;15.408;2022-12-18T08:30:06;29.50;;;27.30;;
1995;SDS011;38556;47.068;15.408;2022-12-18T08:32:36;31.48;;;28.85;;
1995;SDS011;38556;47.068;15.408;2022-12-18T08:35:03;29.80;;;27.50;;
1995;SDS011;38556;47.068;15.408;2022-12-18T08:37:31;28.00;;;25.90;;
1995;SDS011;38556;47.068;15.408;2022-12-18T08:39:59;26.80;;;24.90;;
1995;SDS011;38556;47.068;15.408;2022-12-18T08:42:27;28.13;;;26.13;;
1995;SDS011;38556;47.068;15.408;2022-12-18T08:45:12;26.27;;;24.27;;
1995;SDS011;38556;47.068;15.408;2022-12-18T08:47:41;27.08;;;24.98;;
1995;SDS011;38556;47.068;15.408;2022-12-18T08:50:09;29.00;;;26.75;;
1995;SDS011;38556;47.068;15.408;2022-12-18T08:52:37;29.60;;;27.15;;
1995;SDS011;38556;47.068;15.408;2022-12-18T08:55:05;30.27;;;27.88;;
1995;SDS011;38556;47.068;15.408;2022-12-18T08:57:34;32.10;;;29.42;;
1995;SDS011;38556;47.068;15.408;2022-12-18T09:00:01;32.15;;;29.25;;
1995;SDS011;38556;47.068;15.408;2022-12-18T09:02:29;29.52;;;27.10;;
1995;SDS011;38556;47.068;15.408;2022-12-18T09:04:58;30.27;;;27.88;;
1995;SDS011;38556;47.068;15.408;2022-12-18T09:07:25;29.25;;;27.13;;
1995;SDS011;38556;47.068;15.408;2022-12-18T09:09:53;30.67;;;28.25;;
1995;SDS011;38556;47.068;15.408;2022-12-18T09:12:20;32.50;;;29.83;;
1995;SDS011;38556;47.068;15.408;2022-12-18T09:14:48;31.98;;;29.27;;
1995;SDS011;38556;47.068;15.408;2022-12-18T09:17:15;33.88;;;31.17;;
1995;SDS011;38556;47.068;15.408;2022-12-18T09:19:43;32.33;;;29.52;;
1995;SDS011;38556;47.068;15.408;2022-12-18T09:22:12;33.03;;;30.40;;
1995;SDS011;38556;47.068;15.408;2022-12-18T09:24:39;32.67;;;29.90;;
1995;SDS011;38556;47.068;15.408;2022-12-18T09:27:09;33.63;;;30.70;;
1995;SDS011;38556;47.068;15.408;2022-12-18T09:29:37;35.20;;;32.03;;
1995;SDS011;38556;47.068;15.408;2022-12-18T09:32:04;36.65;;;33.38;;
1995;SDS011;38556;47.068;15.408;2022-12-18T09:34:32;34.95;;;31.73;;
1995;SDS011;38556;47.068;15.408;2022-12-18T09:36:59;36.00;;;32.90;;
1995;SDS011;38556;47.068;15.408;2022-12-18T09:39:29;36.05;;;32.78;;
1995;SDS011;38556;47.068;15.408;2022-12-18T09:41:57;35.60;;;32.50;;
1995;SDS011;38556;47.068;15.408;2022-12-18T09:44:26;35.40;;;32.22;;
1995;SDS011;38556;47.068;15.408;2022-12-18T09:46:59;35.63;;;32.63;;
1995;SDS011;38556;47.068;15.408;2022-12-18T09:49:31;35.90;;;32.50;;
1995;SDS011;38556;47.068;15.408;2022-12-18T09:52:02;39.55;;;36.05;;
1995;SDS011;38556;47.068;15.408;2022-12-18T09:54:38;39.33;;;35.53;;
1995;SDS011;38556;47.068;15.408;2022-12-18T09:57:11;38.90;;;35.30;;
1995;SDS011;38556;47.068;15.408;2022-12-18T09:59:41;38.75;;;35.03;;
1995;SDS011;38556;47.068;15.408;2022-12-18T10:02:13;37.22;;;33.83;;
1995;SDS011;38556;47.068;15.408;2022-12-18T10:04:43;38.45;;;34.95;;
1995;SDS011;38556;47.068;15.408;2022-12-18T10:07:13;37.38;;;33.95;;
1995;SDS011;38556;47.068;15.408;2022-12-18T10:09:49;38.40;;;34.22;;
1995;SDS011;38556;47.068;15.408;2022-12-18T10:12:25;38.63;;;34.92;;
1995;SDS011;38556;47.068;15.408;2022-12-18T10:15:00;35.63;;;32.50;;
1995;SDS011;38556;47.068;15.408;2022-12-18T10:17:33;38.70;;;34.90;;
1995;SDS011;38556;47.068;15.408;2022-12-18T10:20:10;36.33;;;33.03;;
1995;SDS011;38556;47.068;15.408;2022-12-18T10:22:48;36.70;;;33.28;;
1995;SDS011;38556;47.068;15.408;2022-12-18T10:25:22;37.05;;;33.55;;
1995;SDS011;38556;47.068;15.408;2022-12-18T10:27:54;36.25;;;32.63;;
1995;SDS011;38556;47.068;15.408;2022-12-18T10:30:24;36.65;;;33.22;;
1995;SDS011;38556;47.068;15.408;2022-12-18T10:32:52;37.42;;;33.92;;
1995;SDS011;38556;47.068;15.408;2022-12-18T10:35:22;36.25;;;32.83;;
1995;SDS011;38556;47.068;15.408;2022-12-18T10:37:59;39.28;;;35.30;;
1995;SDS011;38556;47.068;15.408;2022-12-18T10:40:30;37.03;;;33.60;;
1995;SDS011;38556;47.068;15.408;2022-12-18T10:43:05;37.65;;;34.10;;
1995;SDS011;38556;47.068;15.408;2022-12-18T10:45:37;38.95;;;35.28;;
1995;SDS011;38556;47.068;15.408;2022-12-18T10:48:05;38.13;;;34.50;;
1995;SDS011;38556;47.068;15.408;2022-12-18T10:50:46;39.78;;;35.88;;
1995;SDS011;38556;47.068;15.408;2022-12-18T10:53:19;38.42;;;34.67;;
1995;SDS011;38556;47.068;15.408;2022-12-18T10:55:49;38.53;;;34.80;;
1995;SDS011;38556;47.068;15.408;2022-12-18T10:58:22;39.70;;;36.03;;
1995;SDS011;38556;47.068;15.408;2022-12-18T11:01:10;40.53;;;36.30;;
1995;SDS011;38556;47.068;15.408;2022-12-18T11:03:40;40.05;;;36.17;;
1995;SDS011;38556;47.068;15.408;2022-12-18T11:06:09;40.72;;;36.88;;
1995;SDS011;38556;47.068;15.408;2022-12-18T11:08:39;38.45;;;34.85;;
1995;SDS011;38556;47.068;15.408;2022-12-18T11:11:15;42.83;;;38.30;;
1995;SDS011;38556;47.068;15.408;2022-12-18T11:13:51;37.90;;;33.95;;
1995;SDS011;38556;47.068;15.408;2022-12-18T11:16:30;38.72;;;34.90;;
1995;SDS011;38556;47.068;15.408;2022-12-18T11:19:09;38.83;;;35.13;;
1995;SDS011;38556;47.068;15.408;2022-12-18T11:21:47;38.53;;;34.80;;
1995;SDS011;38556;47.068;15.408;2022-12-18T11:24:22;40.20;;;36.40;;
1995;SDS011;38556;47.068;15.408;2022-12-18T11:26:55;43.28;;;38.80;;
1995;SDS011;38556;47.068;15.408;2022-12-18T11:29:24;42.75;;;38.55;;
1995;SDS011;38556;47.068;15.408;2022-12-18T11:35:00;41.53;;;37.33;;
1995;SDS011;38556;47.068;15.408;2022-12-18T11:37:31;39.88;;;35.85;;
1995;SDS011;38556;47.068;15.408;2022-12-18T11:40:00;42.65;;;38.50;;
1995;SDS011;38556;47.068;15.408;2022-12-18T11:42:35;41.88;;;37.63;;
1995;SDS011;38556;47.068;15.408;2022-12-18T11:45:14;40.75;;;36.40;;
1995;SDS011;38556;47.068;15.408;2022-12-18T11:47:52;41.17;;;37.25;;
1995;SDS011;38556;47.068;15.408;2022-12-18T11:50:25;42.40;;;38.10;;
1995;SDS011;38556;47.068;15.408;2022-12-18T11:52:56;42.08;;;37.80;;
1995;SDS011;38556;47.068;15.408;2022-12-18T11:55:26;43.10;;;38.75;;
1995;SDS011;38556;47.068;15.408;2022-12-18T11:58:01;41.20;;;37.35;;
1995;SDS011;38556;47.068;15.408;2022-12-18T12:00:37;41.60;;;37.17;;
1995;SDS011;38556;47.068;15.408;2022-12-18T12:03:34;44.15;;;39.70;;
1995;SDS011;38556;47.068;15.408;2022-12-18T12:06:14;44.65;;;40.05;;
1995;SDS011;38556;47.068;15.408;2022-12-18T12:08:55;49.25;;;42.65;;
1995;SDS011;38556;47.068;15.408;2022-12-18T12:11:34;44.95;;;40.25;;
1995;SDS011;38556;47.068;15.408;2022-12-18T12:14:16;43.53;;;39.15;;
1995;SDS011;38556;47.068;15.408;2022-12-18T12:16:53;50.65;;;45.17;;
1995;SDS011;38556;47.068;15.408;2022-12-18T12:19:30;45.78;;;40.90;;
1995;SDS011;38556;47.068;15.408;2022-12-18T12:22:05;45.45;;;40.65;;
1995;SDS011;38556;47.068;15.408;2022-12-18T12:24:45;42.92;;;38.38;;
1995;SDS011;38556;47.068;15.408;2022-12-18T12:27:24;42.05;;;37.83;;
1995;SDS011;38556;47.068;15.408;2022-12-18T12:30:05;42.03;;;37.63;;
1995;SDS011;38556;47.068;15.408;2022-12-18T12:32:41;43.85;;;39.28;;
1995;SDS011;38556;47.068;15.408;2022-12-18T12:35:18;42.50;;;38.20;;
1995;SDS011;38556;47.068;15.408;2022-12-18T12:37:57;44.35;;;39.35;;
1995;SDS011;38556;47.068;15.408;2022-12-18T12:40:34;43.92;;;39.20;;
1995;SDS011;38556;47.068;15.408;2022-12-18T12:43:10;43.65;;;39.25;;
1995;SDS011;38556;47.068;15.408;2022-12-18T12:45:47;45.08;;;39.55;;
1995;SDS011;38556;47.068;15.408;2022-12-18T12:48:24;46.55;;;41.67;;
1995;SDS011;38556;47.068;15.408;2022-12-18T12:51:00;50.13;;;44.78;;
1995;SDS011;38556;47.068;15.408;2022-12-18T12:53:32;47.15;;;42.05;;
1995;SDS011;38556;47.068;15.408;2022-12-18T12:56:04;48.00;;;41.50;;
1995;SDS011;38556;47.068;15.408;2022-12-18T12:58:34;50.80;;;44.58;;
1995;SDS011;38556;47.068;15.408;2022-12-18T13:01:10;49.78;;;43.83;;
1995;SDS011;38556;47.068;15.408;2022-12-18T13:03:48;47.63;;;42.65;;
1995;SDS011;38556;47.068;15.408;2022-12-18T13:06:24;48.95;;;43.72;;
1995;SDS011;38556;47.068;15.408;2022-12-18T13:09:00;48.78;;;42.95;;
1995;SDS011;38556;47.068;15.408;2022-12-18T13:11:32;47.83;;;40.67;;
1995;SDS011;38556;47.068;15.408;2022-12-18T13:14:26;48.83;;;43.05;;
1995;SDS011;38556;47.068;15.408;2022-12-18T13:20:03;48.25;;;42.05;;
1995;SDS011;38556;47.068;15.408;2022-12-18T13:22:34;47.85;;;41.70;;
1995;SDS011;38556;47.068;15.408;2022-12-18T13:25:03;47.72;;;41.38;;
1995;SDS011;38556;47.068;15.408;2022-12-18T13:27:46;52.13;;;43.83;;
1995;SDS011;38556;47.068;15.408;2022-12-18T13:30:43;52.10;;;43.38;;
1995;SDS011;38556;47.068;15.408;2022-12-18T13:33:37;49.20;;;43.00;;
1995;SDS011;38556;47.068;15.408;2022-12-18T13:39:09;49.95;;;42.05;;
1995;SDS011;38556;47.068;15.408;2022-12-18T13:45:37;50.63;;;42.33;;
1995;SDS011;38556;47.068;15.408;2022-12-18T13:48:14;51.00;;;43.63;;
1995;SDS011;38556;47.068;15.408;2022-12-18T13:50:49;45.65;;;38.25;;
1995;SDS011;38556;47.068;15.408;2022-12-18T13:53:23;48.03;;;42.63;;
1995;SDS011;38556;47.068;15.408;2022-12-18T13:55:53;51.80;;;43.08;;
1995;SDS011;38556;47.068;15.408;2022-12-18T13:58:21;49.95;;;43.15;;
1995;SDS011;38556;47.068;15.408;2022-12-18T14:00:49;54.22;;;45.63;;
1995;SDS011;38556;47.068;15.408;2022-12-18T14:03:18;49.83;;;42.13;;
1995;SDS011;38556;47.068;15.408;2022-12-18T14:05:52;51.63;;;43.08;;
1995;SDS011;38556;47.068;15.408;2022-12-18T14:08:32;54.05;;;43.03;;
1995;SDS011;38556;47.068;15.408;2022-12-18T14:11:04;53.97;;;43.45;;
1995;SDS011;38556;47.068;15.408;2022-12-18T14:13:34;51.17;;;42.80;;
1995;SDS011;38556;47.068;15.408;2022-12-18T14:16:04;47.60;;;41.85;;
1995;SDS011;38556;47.068;15.408;2022-12-18T14:18:38;47.35;;;40.85;;
1995;SDS011;38556;47.068;15.408;2022-12-18T14:21:17;47.53;;;42.17;;
1995;SDS011;38556;47.068;15.408;2022-12-18T14:23:48;52.70;;;44.13;;
1995;SDS011;38556;47.068;15.408;2022-12-18T14:26:20;52.92;;;42.47;;
1995;SDS011;38556;47.068;15.408;2022-12-18T14:28:51;49.17;;;42.50;;
1995;SDS011;38556;47.068;15.408;2022-12-18T14:31:19;47.50;;;41.00;;
1995;SDS011;38556;47.068;15.408;2022-12-18T14:33:48;52.47;;;43.33;;
1995;SDS011;38556;47.068;15.408;2022-12-18T14:36:19;51.53;;;40.50;;
1995;SDS011;38556;47.068;15.408;2022-12-18T14:38:49;48.17;;;40.47;;
1995;SDS011;38556;47.068;15.408;2022-12-18T14:41:19;50.38;;;40.50;;
1995;SDS011;38556;47.068;15.408;2022-12-18T14:43:48;45.92;;;39.67;;
1995;SDS011;38556;47.068;15.408;2022-12-18T14:46:27;54.47;;;43.95;;
1995;SDS011;38556;47.068;15.408;2022-12-18T14:48:57;52.95;;;43.10;;
1995;SDS011;38556;47.068;15.408;2022-12-18T14:51:27;51.22;;;42.75;;
1995;SDS011;38556;47.068;15.408;2022-12-18T14:53:56;47.67;;;41.80;;
1995;SDS011;38556;47.068;15.408;2022-12-18T14:56:26;47.38;;;41.45;;